This is the latest recevied weather packets stored in our database for station/object KB1FFS. If no packets are shown the sender has not sent any weather packets the latest 1 day(s).
| Time | Temp. | Humidity | Pressure | Rain* | Wind** | Luminosity | Snow |
|---|---|---|---|---|---|---|---|
| 1778014604 | 34.44° C | 42% | 1004.9 hPa | 0 mm | 0 m/s | 787 W/m² | - |
| 1778014303 | 35° C | 41% | 1005.1 hPa | 0 mm | 0.89 m/s, 273° | 862 W/m² | - |
| 1778014003 | 35.56° C | 42% | 1005.2 hPa | 0 mm | 0.45 m/s, 334° | 664 W/m² | - |
| 1778013697 | 35° C | 40% | 1005.3 hPa | 0 mm | 0.89 m/s, 117° | 657 W/m² | - |
| 1778013394 | 35° C | 42% | 1005.3 hPa | 0 mm | 0.45 m/s, 278° | 847 W/m² | - |
| 1778013091 | 34.44° C | 42% | 1005.2 hPa | 0 mm | 1.34 m/s, 349° | 789 W/m² | - |
| 1778012786 | 34.44° C | 43% | 1005.3 hPa | 0 mm | 1.34 m/s, 273° | 817 W/m² | - |
| 1778012482 | 34.44° C | 42% | 1005.3 hPa | 0 mm | 0.89 m/s, 330° | 885 W/m² | - |
| 1778012179 | 34.44° C | 41% | 1005.2 hPa | 0 mm | 0.89 m/s, 91° | 884 W/m² | - |
| 1778011877 | 34.44° C | 44% | 1005.5 hPa | 0 mm | 1.34 m/s, 25° | 897 W/m² | - |
| 1778011575 | 34.44° C | 45% | 1005.5 hPa | 0 mm | 0.45 m/s, 269° | 838 W/m² | - |
| 1778011271 | 34.44° C | 45% | 1005.5 hPa | 0 mm | 0.89 m/s, 0° | 866 W/m² | - |
| 1778010968 | 33.89° C | 47% | 1005.6 hPa | 0 mm | 0.89 m/s, 317° | 878 W/m² | - |
| 1778010665 | 34.44° C | 46% | 1005.6 hPa | 0 mm | 0.89 m/s, 350° | 884 W/m² | - |
| 1778010362 | 33.89° C | 49% | 1005.6 hPa | 0 mm | 0.45 m/s, 307° | 830 W/m² | - |
| 1778010058 | 33.33° C | 49% | 1005.8 hPa | 0 mm | 0 m/s | 813 W/m² | - |
| 1778009755 | 32.78° C | 47% | 1005.6 hPa | 0 mm | 1.34 m/s, 7° | 545 W/m² | - |
| 1778009452 | 32.78° C | 48% | 1005.9 hPa | 0 mm | 0.89 m/s, 346° | 930 W/m² | - |
| 1778009151 | 33.33° C | 48% | 1005.8 hPa | 0 mm | 0.89 m/s, 10° | 985 W/m² | - |
| 1778008848 | 32.78° C | 50% | 1005.9 hPa | 0 mm | 0.45 m/s, 327° | 448 W/m² | - |
| 1778008546 | 32.78° C | 50% | 1005.4 hPa | 0 mm | 1.34 m/s, 338° | 812 W/m² | - |
| 1778008243 | 32.78° C | 52% | 1005.6 hPa | 0 mm | 0.89 m/s, 338° | 961 W/m² | - |
| 1778007938 | 32.22° C | 52% | 1005.6 hPa | 0 mm | 0.45 m/s, 22° | 603 W/m² | - |
| 1778007634 | 31.67° C | 52% | 1005.6 hPa | 0 mm | 1.34 m/s, 8° | 946 W/m² | - |
| 1778007331 | 31.11° C | 56% | 1005.6 hPa | 0 mm | 0.89 m/s, 326° | 809 W/m² | - |
* Rain latest hour (hover to see other rain measurements)
** Current wind speed in m/s (hover to see current wind gust speed)